sensor_id;sensor_type;location;lat;lon;timestamp;P1;durP1;ratioP1;P2;durP2;ratioP2
56911;SDS011;42800;53.928;27.662;2023-06-24T00:00:28;5.80;;;4.35;;
56911;SDS011;42800;53.928;27.662;2023-06-24T00:02:55;7.88;;;4.07;;
56911;SDS011;42800;53.928;27.662;2023-06-24T00:05:23;4.28;;;3.40;;
56911;SDS011;42800;53.928;27.662;2023-06-24T00:07:49;10.10;;;3.95;;
56911;SDS011;42800;53.928;27.662;2023-06-24T00:10:15;4.78;;;3.78;;
56911;SDS011;42800;53.928;27.662;2023-06-24T00:12:41;4.75;;;3.22;;
56911;SDS011;42800;53.928;27.662;2023-06-24T00:15:08;7.65;;;4.15;;
56911;SDS011;42800;53.928;27.662;2023-06-24T00:17:34;6.72;;;3.70;;
56911;SDS011;42800;53.928;27.662;2023-06-24T00:20:01;6.60;;;4.10;;
56911;SDS011;42800;53.928;27.662;2023-06-24T00:22:29;4.68;;;3.95;;
56911;SDS011;42800;53.928;27.662;2023-06-24T00:24:56;6.10;;;3.42;;
56911;SDS011;42800;53.928;27.662;2023-06-24T00:27:22;7.68;;;3.95;;
56911;SDS011;42800;53.928;27.662;2023-06-24T00:29:48;5.70;;;4.28;;
56911;SDS011;42800;53.928;27.662;2023-06-24T00:32:13;12.90;;;4.07;;
56911;SDS011;42800;53.928;27.662;2023-06-24T00:34:39;8.65;;;4.10;;
56911;SDS011;42800;53.928;27.662;2023-06-24T00:37:08;5.13;;;3.88;;
56911;SDS011;42800;53.928;27.662;2023-06-24T00:39:34;7.60;;;3.70;;
56911;SDS011;42800;53.928;27.662;2023-06-24T00:42:00;7.45;;;4.20;;
56911;SDS011;42800;53.928;27.662;2023-06-24T00:44:27;6.18;;;4.07;;
56911;SDS011;42800;53.928;27.662;2023-06-24T00:46:53;4.15;;;3.72;;
56911;SDS011;42800;53.928;27.662;2023-06-24T00:49:19;7.70;;;5.40;;
56911;SDS011;42800;53.928;27.662;2023-06-24T00:51:45;5.53;;;4.22;;
56911;SDS011;42800;53.928;27.662;2023-06-24T00:54:15;6.05;;;3.53;;
56911;SDS011;42800;53.928;27.662;2023-06-24T00:56:41;6.63;;;4.18;;
56911;SDS011;42800;53.928;27.662;2023-06-24T00:59:08;6.40;;;3.80;;
56911;SDS011;42800;53.928;27.662;2023-06-24T01:01:38;7.07;;;3.78;;
56911;SDS011;42800;53.928;27.662;2023-06-24T01:04:04;5.20;;;4.45;;
56911;SDS011;42800;53.928;27.662;2023-06-24T01:06:30;4.85;;;3.83;;
56911;SDS011;42800;53.928;27.662;2023-06-24T01:08:58;5.30;;;3.70;;
56911;SDS011;42800;53.928;27.662;2023-06-24T01:11:25;5.47;;;3.63;;
56911;SDS011;42800;53.928;27.662;2023-06-24T01:13:52;15.38;;;4.45;;
56911;SDS011;42800;53.928;27.662;2023-06-24T01:16:21;13.77;;;4.55;;
56911;SDS011;42800;53.928;27.662;2023-06-24T01:18:52;5.68;;;3.95;;
56911;SDS011;42800;53.928;27.662;2023-06-24T01:21:29;6.05;;;3.63;;
56911;SDS011;42800;53.928;27.662;2023-06-24T01:24:14;6.60;;;4.50;;
56911;SDS011;42800;53.928;27.662;2023-06-24T01:27:14;6.03;;;4.30;;
56911;SDS011;42800;53.928;27.662;2023-06-24T01:30:03;8.98;;;5.10;;
56911;SDS011;42800;53.928;27.662;2023-06-24T01:32:42;6.97;;;4.03;;
56911;SDS011;42800;53.928;27.662;2023-06-24T01:35:11;9.05;;;4.30;;
56911;SDS011;42800;53.928;27.662;2023-06-24T01:37:41;10.77;;;4.50;;
56911;SDS011;42800;53.928;27.662;2023-06-24T01:40:20;12.10;;;5.00;;
56911;SDS011;42800;53.928;27.662;2023-06-24T01:42:50;6.05;;;3.90;;
56911;SDS011;42800;53.928;27.662;2023-06-24T01:45:19;5.30;;;4.45;;
56911;SDS011;42800;53.928;27.662;2023-06-24T01:47:50;6.40;;;4.40;;
56911;SDS011;42800;53.928;27.662;2023-06-24T01:50:21;6.18;;;4.18;;
56911;SDS011;42800;53.928;27.662;2023-06-24T01:52:49;7.93;;;4.40;;
56911;SDS011;42800;53.928;27.662;2023-06-24T01:55:18;10.00;;;4.38;;
56911;SDS011;42800;53.928;27.662;2023-06-24T01:57:46;5.63;;;4.32;;
56911;SDS011;42800;53.928;27.662;2023-06-24T02:00:15;7.28;;;4.05;;
56911;SDS011;42800;53.928;27.662;2023-06-24T02:02:42;5.68;;;4.38;;
56911;SDS011;42800;53.928;27.662;2023-06-24T02:05:09;6.03;;;4.15;;
56911;SDS011;42800;53.928;27.662;2023-06-24T02:07:37;4.85;;;4.25;;
56911;SDS011;42800;53.928;27.662;2023-06-24T02:10:04;7.05;;;4.20;;
56911;SDS011;42800;53.928;27.662;2023-06-24T02:12:33;8.18;;;4.57;;
56911;SDS011;42800;53.928;27.662;2023-06-24T02:15:00;6.25;;;4.50;;
56911;SDS011;42800;53.928;27.662;2023-06-24T02:17:28;8.23;;;4.93;;
56911;SDS011;42800;53.928;27.662;2023-06-24T02:19:54;8.00;;;5.13;;
56911;SDS011;42800;53.928;27.662;2023-06-24T02:22:22;7.90;;;4.57;;
56911;SDS011;42800;53.928;27.662;2023-06-24T02:24:49;6.63;;;4.65;;
56911;SDS011;42800;53.928;27.662;2023-06-24T02:27:16;5.95;;;4.57;;
56911;SDS011;42800;53.928;27.662;2023-06-24T02:29:42;8.40;;;4.60;;
56911;SDS011;42800;53.928;27.662;2023-06-24T02:32:09;6.72;;;4.78;;
56911;SDS011;42800;53.928;27.662;2023-06-24T02:34:35;8.73;;;5.10;;
56911;SDS011;42800;53.928;27.662;2023-06-24T02:37:01;9.13;;;5.32;;
56911;SDS011;42800;53.928;27.662;2023-06-24T02:39:28;6.25;;;4.13;;
56911;SDS011;42800;53.928;27.662;2023-06-24T02:41:54;7.78;;;4.03;;
56911;SDS011;42800;53.928;27.662;2023-06-24T02:44:20;5.88;;;4.40;;
56911;SDS011;42800;53.928;27.662;2023-06-24T02:46:46;8.23;;;4.38;;
56911;SDS011;42800;53.928;27.662;2023-06-24T02:49:15;7.10;;;4.60;;
56911;SDS011;42800;53.928;27.662;2023-06-24T02:51:42;6.40;;;4.28;;
56911;SDS011;42800;53.928;27.662;2023-06-24T02:54:09;8.30;;;4.88;;
56911;SDS011;42800;53.928;27.662;2023-06-24T02:56:37;7.78;;;4.45;;
56911;SDS011;42800;53.928;27.662;2023-06-24T02:59:06;7.53;;;4.50;;
56911;SDS011;42800;53.928;27.662;2023-06-24T03:01:33;6.15;;;4.15;;
56911;SDS011;42800;53.928;27.662;2023-06-24T03:04:04;7.85;;;4.65;;
56911;SDS011;42800;53.928;27.662;2023-06-24T03:06:30;5.68;;;4.15;;
56911;SDS011;42800;53.928;27.662;2023-06-24T03:08:57;8.90;;;4.88;;
56911;SDS011;42800;53.928;27.662;2023-06-24T03:11:25;5.82;;;3.90;;
56911;SDS011;42800;53.928;27.662;2023-06-24T03:13:53;6.45;;;5.18;;
56911;SDS011;42800;53.928;27.662;2023-06-24T03:16:19;7.22;;;4.57;;
56911;SDS011;42800;53.928;27.662;2023-06-24T03:18:45;7.00;;;4.65;;
56911;SDS011;42800;53.928;27.662;2023-06-24T03:21:11;13.20;;;5.13;;
56911;SDS011;42800;53.928;27.662;2023-06-24T03:23:37;6.65;;;4.72;;
56911;SDS011;42800;53.928;27.662;2023-06-24T03:26:05;6.15;;;4.78;;
56911;SDS011;42800;53.928;27.662;2023-06-24T03:28:31;10.27;;;5.03;;
56911;SDS011;42800;53.928;27.662;2023-06-24T03:30:57;7.72;;;4.82;;
56911;SDS011;42800;53.928;27.662;2023-06-24T03:33:24;6.95;;;4.80;;
56911;SDS011;42800;53.928;27.662;2023-06-24T03:35:52;9.05;;;6.10;;
56911;SDS011;42800;53.928;27.662;2023-06-24T03:38:18;7.53;;;5.00;;
56911;SDS011;42800;53.928;27.662;2023-06-24T03:40:44;8.30;;;4.60;;
56911;SDS011;42800;53.928;27.662;2023-06-24T03:43:09;6.53;;;4.53;;
56911;SDS011;42800;53.928;27.662;2023-06-24T03:45:35;7.93;;;4.60;;
56911;SDS011;42800;53.928;27.662;2023-06-24T03:48:02;6.20;;;4.72;;
56911;SDS011;42800;53.928;27.662;2023-06-24T03:50:28;14.68;;;4.80;;
56911;SDS011;42800;53.928;27.662;2023-06-24T03:52:54;5.32;;;4.75;;
56911;SDS011;42800;53.928;27.662;2023-06-24T03:55:20;7.60;;;5.43;;
56911;SDS011;42800;53.928;27.662;2023-06-24T03:57:46;9.73;;;4.35;;
56911;SDS011;42800;53.928;27.662;2023-06-24T04:00:12;7.68;;;4.53;;
56911;SDS011;42800;53.928;27.662;2023-06-24T04:02:41;10.02;;;4.97;;
56911;SDS011;42800;53.928;27.662;2023-06-24T04:05:08;11.30;;;5.07;;
56911;SDS011;42800;53.928;27.662;2023-06-24T04:07:34;6.45;;;5.18;;
56911;SDS011;42800;53.928;27.662;2023-06-24T04:10:01;6.40;;;4.70;;
56911;SDS011;42800;53.928;27.662;2023-06-24T04:12:28;12.25;;;4.72;;
56911;SDS011;42800;53.928;27.662;2023-06-24T04:14:55;6.55;;;4.25;;
56911;SDS011;42800;53.928;27.662;2023-06-24T04:17:20;13.30;;;4.70;;
56911;SDS011;42800;53.928;27.662;2023-06-24T04:19:46;10.13;;;5.00;;
56911;SDS011;42800;53.928;27.662;2023-06-24T04:22:13;8.52;;;6.05;;
56911;SDS011;42800;53.928;27.662;2023-06-24T04:24:39;8.35;;;6.00;;
56911;SDS011;42800;53.928;27.662;2023-06-24T04:27:05;10.05;;;6.60;;
56911;SDS011;42800;53.928;27.662;2023-06-24T04:29:33;10.38;;;4.80;;
56911;SDS011;42800;53.928;27.662;2023-06-24T04:31:59;6.30;;;4.35;;
56911;SDS011;42800;53.928;27.662;2023-06-24T04:34:25;7.45;;;6.25;;
56911;SDS011;42800;53.928;27.662;2023-06-24T04:36:51;8.65;;;4.85;;
56911;SDS011;42800;53.928;27.662;2023-06-24T04:39:17;8.50;;;6.28;;
56911;SDS011;42800;53.928;27.662;2023-06-24T04:41:43;9.95;;;4.82;;
56911;SDS011;42800;53.928;27.662;2023-06-24T04:44:10;12.75;;;4.35;;
56911;SDS011;42800;53.928;27.662;2023-06-24T04:46:35;7.30;;;6.55;;
56911;SDS011;42800;53.928;27.662;2023-06-24T04:49:02;6.75;;;5.10;;
56911;SDS011;42800;53.928;27.662;2023-06-24T04:51:27;6.13;;;4.45;;
56911;SDS011;42800;53.928;27.662;2023-06-24T04:53:53;8.77;;;4.75;;
56911;SDS011;42800;53.928;27.662;2023-06-24T04:56:20;11.77;;;5.25;;
56911;SDS011;42800;53.928;27.662;2023-06-24T04:58:46;8.68;;;6.70;;
56911;SDS011;42800;53.928;27.662;2023-06-24T05:01:12;5.45;;;4.53;;
56911;SDS011;42800;53.928;27.662;2023-06-24T05:03:39;7.88;;;4.78;;
56911;SDS011;42800;53.928;27.662;2023-06-24T05:06:05;7.93;;;4.88;;
56911;SDS011;42800;53.928;27.662;2023-06-24T05:08:30;5.13;;;4.55;;
56911;SDS011;42800;53.928;27.662;2023-06-24T05:10:56;6.28;;;4.95;;
56911;SDS011;42800;53.928;27.662;2023-06-24T05:13:23;7.57;;;5.18;;
56911;SDS011;42800;53.928;27.662;2023-06-24T05:15:49;10.27;;;4.72;;
56911;SDS011;42800;53.928;27.662;2023-06-24T05:18:15;6.18;;;4.70;;
56911;SDS011;42800;53.928;27.662;2023-06-24T05:20:41;9.25;;;4.90;;
56911;SDS011;42800;53.928;27.662;2023-06-24T05:23:07;7.78;;;5.68;;
56911;SDS011;42800;53.928;27.662;2023-06-24T05:25:33;10.23;;;5.95;;
56911;SDS011;42800;53.928;27.662;2023-06-24T05:28:00;7.45;;;5.60;;
56911;SDS011;42800;53.928;27.662;2023-06-24T05:30:26;11.63;;;5.10;;
56911;SDS011;42800;53.928;27.662;2023-06-24T05:32:52;6.90;;;4.80;;
56911;SDS011;42800;53.928;27.662;2023-06-24T05:35:18;7.05;;;4.50;;
56911;SDS011;42800;53.928;27.662;2023-06-24T05:37:44;7.72;;;4.95;;
56911;SDS011;42800;53.928;27.662;2023-06-24T05:40:10;10.77;;;5.22;;
56911;SDS011;42800;53.928;27.662;2023-06-24T05:42:37;5.22;;;4.60;;
56911;SDS011;42800;53.928;27.662;2023-06-24T05:45:04;5.50;;;5.00;;
56911;SDS011;42800;53.928;27.662;2023-06-24T05:47:32;6.53;;;4.80;;
56911;SDS011;42800;53.928;27.662;2023-06-24T05:49:58;10.45;;;5.30;;
56911;SDS011;42800;53.928;27.662;2023-06-24T05:52:24;6.20;;;4.88;;
56911;SDS011;42800;53.928;27.662;2023-06-24T05:54:50;7.20;;;4.70;;
56911;SDS011;42800;53.928;27.662;2023-06-24T05:57:16;8.40;;;4.95;;
56911;SDS011;42800;53.928;27.662;2023-06-24T05:59:42;6.00;;;4.60;;
56911;SDS011;42800;53.928;27.662;2023-06-24T06:02:08;5.60;;;4.68;;
56911;SDS011;42800;53.928;27.662;2023-06-24T06:04:35;8.90;;;4.50;;
56911;SDS011;42800;53.928;27.662;2023-06-24T06:07:01;4.88;;;4.47;;
56911;SDS011;42800;53.928;27.662;2023-06-24T06:09:27;6.15;;;4.28;;
56911;SDS011;42800;53.928;27.662;2023-06-24T06:11:53;6.78;;;4.07;;
56911;SDS011;42800;53.928;27.662;2023-06-24T06:14:19;4.75;;;4.35;;
56911;SDS011;42800;53.928;27.662;2023-06-24T06:16:45;5.47;;;4.60;;
56911;SDS011;42800;53.928;27.662;2023-06-24T06:19:11;7.03;;;4.43;;
56911;SDS011;42800;53.928;27.662;2023-06-24T06:21:37;5.82;;;4.60;;
56911;SDS011;42800;53.928;27.662;2023-06-24T06:24:03;5.65;;;3.90;;
56911;SDS011;42800;53.928;27.662;2023-06-24T06:26:30;5.00;;;3.85;;
56911;SDS011;42800;53.928;27.662;2023-06-24T06:28:56;6.55;;;4.03;;
56911;SDS011;42800;53.928;27.662;2023-06-24T06:31:22;4.22;;;3.70;;
56911;SDS011;42800;53.928;27.662;2023-06-24T06:33:50;4.40;;;3.92;;
56911;SDS011;42800;53.928;27.662;2023-06-24T06:36:16;7.45;;;4.13;;
56911;SDS011;42800;53.928;27.662;2023-06-24T06:38:43;4.53;;;4.13;;
56911;SDS011;42800;53.928;27.662;2023-06-24T06:41:09;8.93;;;4.43;;
56911;SDS011;42800;53.928;27.662;2023-06-24T06:43:35;4.43;;;4.00;;
56911;SDS011;42800;53.928;27.662;2023-06-24T06:46:01;6.35;;;4.15;;
56911;SDS011;42800;53.928;27.662;2023-06-24T06:48:27;8.68;;;4.78;;
56911;SDS011;42800;53.928;27.662;2023-06-24T06:50:52;6.65;;;4.28;;
56911;SDS011;42800;53.928;27.662;2023-06-24T06:53:18;4.60;;;4.20;;
56911;SDS011;42800;53.928;27.662;2023-06-24T06:55:45;7.47;;;3.33;;
56911;SDS011;42800;53.928;27.662;2023-06-24T06:58:11;4.30;;;3.60;;
56911;SDS011;42800;53.928;27.662;2023-06-24T07:00:37;5.53;;;4.03;;
56911;SDS011;42800;53.928;27.662;2023-06-24T07:03:03;5.63;;;3.88;;
56911;SDS011;42800;53.928;27.662;2023-06-24T07:05:29;4.28;;;3.75;;
56911;SDS011;42800;53.928;27.662;2023-06-24T07:07:54;5.80;;;3.65;;
56911;SDS011;42800;53.928;27.662;2023-06-24T07:10:20;6.85;;;3.88;;
56911;SDS011;42800;53.928;27.662;2023-06-24T07:12:47;8.35;;;4.05;;
56911;SDS011;42800;53.928;27.662;2023-06-24T07:15:13;6.20;;;3.88;;
56911;SDS011;42800;53.928;27.662;2023-06-24T07:17:39;9.63;;;4.05;;
56911;SDS011;42800;53.928;27.662;2023-06-24T07:20:06;4.40;;;3.63;;
56911;SDS011;42800;53.928;27.662;2023-06-24T07:22:32;5.10;;;3.70;;
56911;SDS011;42800;53.928;27.662;2023-06-24T07:24:58;5.50;;;4.00;;
56911;SDS011;42800;53.928;27.662;2023-06-24T07:27:25;5.70;;;4.25;;
56911;SDS011;42800;53.928;27.662;2023-06-24T07:29:52;9.63;;;4.35;;
56911;SDS011;42800;53.928;27.662;2023-06-24T07:32:17;8.40;;;3.95;;
56911;SDS011;42800;53.928;27.662;2023-06-24T07:34:43;4.40;;;3.75;;
56911;SDS011;42800;53.928;27.662;2023-06-24T07:37:09;4.13;;;3.50;;
56911;SDS011;42800;53.928;27.662;2023-06-24T07:39:35;5.78;;;3.97;;
56911;SDS011;42800;53.928;27.662;2023-06-24T07:42:01;4.78;;;4.18;;
56911;SDS011;42800;53.928;27.662;2023-06-24T07:44:28;9.80;;;4.22;;
56911;SDS011;42800;53.928;27.662;2023-06-24T07:46:54;9.02;;;3.88;;
56911;SDS011;42800;53.928;27.662;2023-06-24T07:49:20;5.00;;;3.97;;
56911;SDS011;42800;53.928;27.662;2023-06-24T07:51:46;4.93;;;3.80;;
56911;SDS011;42800;53.928;27.662;2023-06-24T07:54:12;3.92;;;3.53;;
56911;SDS011;42800;53.928;27.662;2023-06-24T07:56:38;5.32;;;3.50;;
56911;SDS011;42800;53.928;27.662;2023-06-24T07:59:04;9.98;;;3.97;;
56911;SDS011;42800;53.928;27.662;2023-06-24T08:01:30;6.55;;;2.83;;
56911;SDS011;42800;53.928;27.662;2023-06-24T08:03:56;3.35;;;3.03;;
56911;SDS011;42800;53.928;27.662;2023-06-24T08:06:22;6.80;;;3.38;;
56911;SDS011;42800;53.928;27.662;2023-06-24T08:08:48;3.08;;;2.88;;
56911;SDS011;42800;53.928;27.662;2023-06-24T08:11:14;3.60;;;3.00;;
56911;SDS011;42800;53.928;27.662;2023-06-24T08:13:40;4.40;;;2.92;;
56911;SDS011;42800;53.928;27.662;2023-06-24T08:16:07;5.38;;;3.30;;
56911;SDS011;42800;53.928;27.662;2023-06-24T08:18:32;6.63;;;3.65;;
56911;SDS011;42800;53.928;27.662;2023-06-24T08:20:59;3.95;;;3.40;;
56911;SDS011;42800;53.928;27.662;2023-06-24T08:23:25;5.40;;;2.90;;
56911;SDS011;42800;53.928;27.662;2023-06-24T08:25:51;4.13;;;3.47;;
56911;SDS011;42800;53.928;27.662;2023-06-24T08:28:17;4.05;;;3.00;;
56911;SDS011;42800;53.928;27.662;2023-06-24T08:30:43;5.32;;;3.67;;
56911;SDS011;42800;53.928;27.662;2023-06-24T08:33:08;6.57;;;3.58;;
56911;SDS011;42800;53.928;27.662;2023-06-24T08:35:34;4.40;;;3.50;;
56911;SDS011;42800;53.928;27.662;2023-06-24T08:38:01;4.03;;;3.28;;
56911;SDS011;42800;53.928;27.662;2023-06-24T08:40:27;3.75;;;2.90;;
56911;SDS011;42800;53.928;27.662;2023-06-24T08:42:54;4.53;;;3.40;;
56911;SDS011;42800;53.928;27.662;2023-06-24T08:45:20;5.18;;;3.17;;
56911;SDS011;42800;53.928;27.662;2023-06-24T08:47:46;6.95;;;3.30;;
56911;SDS011;42800;53.928;27.662;2023-06-24T08:50:15;4.97;;;3.40;;
56911;SDS011;42800;53.928;27.662;2023-06-24T08:52:44;4.78;;;3.53;;
56911;SDS011;42800;53.928;27.662;2023-06-24T08:55:16;5.47;;;3.50;;
56911;SDS011;42800;53.928;27.662;2023-06-24T08:57:42;6.97;;;3.60;;
56911;SDS011;42800;53.928;27.662;2023-06-24T09:00:09;5.05;;;4.18;;
56911;SDS011;42800;53.928;27.662;2023-06-24T09:02:36;6.93;;;3.65;;
56911;SDS011;42800;53.928;27.662;2023-06-24T09:05:03;4.75;;;3.47;;
56911;SDS011;42800;53.928;27.662;2023-06-24T09:07:29;5.30;;;3.50;;
56911;SDS011;42800;53.928;27.662;2023-06-24T09:09:55;3.90;;;3.50;;
56911;SDS011;42800;53.928;27.662;2023-06-24T09:12:24;4.20;;;3.80;;
56911;SDS011;42800;53.928;27.662;2023-06-24T09:14:50;5.82;;;3.80;;
56911;SDS011;42800;53.928;27.662;2023-06-24T09:17:16;4.88;;;3.40;;
56911;SDS011;42800;53.928;27.662;2023-06-24T09:19:43;9.30;;;3.50;;
56911;SDS011;42800;53.928;27.662;2023-06-24T09:22:09;4.50;;;3.60;;
56911;SDS011;42800;53.928;27.662;2023-06-24T09:24:41;6.30;;;3.47;;
56911;SDS011;42800;53.928;27.662;2023-06-24T09:27:07;4.65;;;3.28;;
56911;SDS011;42800;53.928;27.662;2023-06-24T09:29:34;4.03;;;3.17;;
56911;SDS011;42800;53.928;27.662;2023-06-24T09:32:03;4.90;;;3.05;;
56911;SDS011;42800;53.928;27.662;2023-06-24T09:34:30;4.72;;;3.13;;
56911;SDS011;42800;53.928;27.662;2023-06-24T09:36:57;3.70;;;3.08;;
56911;SDS011;42800;53.928;27.662;2023-06-24T09:39:25;8.48;;;3.38;;
56911;SDS011;42800;53.928;27.662;2023-06-24T09:41:54;9.90;;;3.60;;
56911;SDS011;42800;53.928;27.662;2023-06-24T09:44:20;4.60;;;3.53;;
56911;SDS011;42800;53.928;27.662;2023-06-24T09:46:47;4.50;;;3.65;;
56911;SDS011;42800;53.928;27.662;2023-06-24T09:49:13;4.70;;;3.35;;
56911;SDS011;42800;53.928;27.662;2023-06-24T09:51:40;4.75;;;3.42;;
56911;SDS011;42800;53.928;27.662;2023-06-24T09:54:09;5.15;;;3.38;;
56911;SDS011;42800;53.928;27.662;2023-06-24T09:56:35;4.28;;;3.50;;
56911;SDS011;42800;53.928;27.662;2023-06-24T09:59:03;5.03;;;3.35;;
56911;SDS011;42800;53.928;27.662;2023-06-24T10:01:29;4.95;;;3.55;;
56911;SDS011;42800;53.928;27.662;2023-06-24T10:03:58;6.70;;;3.70;;
56911;SDS011;42800;53.928;27.662;2023-06-24T10:06:24;4.53;;;3.50;;
56911;SDS011;42800;53.928;27.662;2023-06-24T10:08:51;5.18;;;3.40;;
56911;SDS011;42800;53.928;27.662;2023-06-24T10:11:18;4.00;;;3.60;;
56911;SDS011;42800;53.928;27.662;2023-06-24T10:13:44;4.60;;;3.30;;
56911;SDS011;42800;53.928;27.662;2023-06-24T10:16:10;4.88;;;3.40;;
56911;SDS011;42800;53.928;27.662;2023-06-24T10:18:36;4.50;;;3.70;;
56911;SDS011;42800;53.928;27.662;2023-06-24T10:21:04;5.35;;;3.28;;
56911;SDS011;42800;53.928;27.662;2023-06-24T10:23:32;4.55;;;3.40;;
56911;SDS011;42800;53.928;27.662;2023-06-24T10:25:59;3.53;;;3.22;;
56911;SDS011;42800;53.928;27.662;2023-06-24T10:28:25;4.35;;;3.38;;
56911;SDS011;42800;53.928;27.662;2023-06-24T10:30:54;4.40;;;3.70;;
56911;SDS011;42800;53.928;27.662;2023-06-24T10:33:21;6.85;;;3.53;;
56911;SDS011;42800;53.928;27.662;2023-06-24T10:35:48;3.47;;;3.17;;
56911;SDS011;42800;53.928;27.662;2023-06-24T10:38:16;3.63;;;3.33;;
56911;SDS011;42800;53.928;27.662;2023-06-24T10:40:43;4.75;;;3.67;;
56911;SDS011;42800;53.928;27.662;2023-06-24T10:43:28;3.60;;;3.30;;
56911;SDS011;42800;53.928;27.662;2023-06-24T10:45:55;6.78;;;3.75;;
56911;SDS011;42800;53.928;27.662;2023-06-24T10:48:22;5.90;;;3.50;;
56911;SDS011;42800;53.928;27.662;2023-06-24T10:50:48;4.30;;;3.42;;
56911;SDS011;42800;53.928;27.662;2023-06-24T10:53:15;4.25;;;3.75;;
56911;SDS011;42800;53.928;27.662;2023-06-24T10:55:43;8.27;;;4.22;;
56911;SDS011;42800;53.928;27.662;2023-06-24T10:58:10;4.75;;;3.63;;
56911;SDS011;42800;53.928;27.662;2023-06-24T11:00:38;4.95;;;3.80;;
56911;SDS011;42800;53.928;27.662;2023-06-24T11:03:08;6.03;;;3.28;;
56911;SDS011;42800;53.928;27.662;2023-06-24T11:05:36;6.88;;;3.83;;
56911;SDS011;42800;53.928;27.662;2023-06-24T11:08:04;5.57;;;3.70;;
56911;SDS011;42800;53.928;27.662;2023-06-24T11:10:31;7.07;;;3.65;;
56911;SDS011;42800;53.928;27.662;2023-06-24T11:12:57;4.25;;;3.55;;
56911;SDS011;42800;53.928;27.662;2023-06-24T11:17:57;4.40;;;3.45;;
56911;SDS011;42800;53.928;27.662;2023-06-24T11:20:23;4.00;;;3.40;;
56911;SDS011;42800;53.928;27.662;2023-06-24T11:22:49;4.47;;;3.05;;
56911;SDS011;42800;53.928;27.662;2023-06-24T11:25:15;3.97;;;3.20;;
56911;SDS011;42800;53.928;27.662;2023-06-24T11:27:42;3.85;;;3.00;;
56911;SDS011;42800;53.928;27.662;2023-06-24T11:30:09;7.60;;;3.38;;
56911;SDS011;42800;53.928;27.662;2023-06-24T11:32:36;4.40;;;3.50;;
56911;SDS011;42800;53.928;27.662;2023-06-24T11:35:03;4.25;;;3.80;;
56911;SDS011;42800;53.928;27.662;2023-06-24T11:37:31;6.18;;;3.28;;
56911;SDS011;42800;53.928;27.662;2023-06-24T11:40:00;4.30;;;3.70;;
56911;SDS011;42800;53.928;27.662;2023-06-24T11:42:29;6.32;;;3.22;;
56911;SDS011;42800;53.928;27.662;2023-06-24T11:44:59;6.63;;;3.50;;
56911;SDS011;42800;53.928;27.662;2023-06-24T11:47:26;4.40;;;3.40;;
56911;SDS011;42800;53.928;27.662;2023-06-24T11:49:52;4.15;;;3.50;;
56911;SDS011;42800;53.928;27.662;2023-06-24T11:52:24;7.63;;;3.50;;
56911;SDS011;42800;53.928;27.662;2023-06-24T11:54:57;5.57;;;3.67;;
56911;SDS011;42800;53.928;27.662;2023-06-24T11:57:26;5.30;;;3.30;;
56911;SDS011;42800;53.928;27.662;2023-06-24T12:00:14;4.82;;;3.83;;
56911;SDS011;42800;53.928;27.662;2023-06-24T12:02:40;3.58;;;3.28;;
56911;SDS011;42800;53.928;27.662;2023-06-24T12:05:07;4.25;;;3.55;;
56911;SDS011;42800;53.928;27.662;2023-06-24T12:07:33;5.47;;;3.92;;
56911;SDS011;42800;53.928;27.662;2023-06-24T12:09:59;8.27;;;3.55;;
56911;SDS011;42800;53.928;27.662;2023-06-24T12:12:25;4.35;;;3.40;;
56911;SDS011;42800;53.928;27.662;2023-06-24T12:14:51;5.15;;;3.70;;
56911;SDS011;42800;53.928;27.662;2023-06-24T12:17:17;4.80;;;3.58;;
56911;SDS011;42800;53.928;27.662;2023-06-24T12:19:43;6.47;;;3.78;;
56911;SDS011;42800;53.928;27.662;2023-06-24T12:22:10;5.82;;;3.92;;
56911;SDS011;42800;53.928;27.662;2023-06-24T12:24:36;4.93;;;3.70;;
56911;SDS011;42800;53.928;27.662;2023-06-24T12:27:02;3.85;;;3.45;;
56911;SDS011;42800;53.928;27.662;2023-06-24T12:29:28;4.30;;;3.60;;
56911;SDS011;42800;53.928;27.662;2023-06-24T12:31:54;5.05;;;3.45;;
56911;SDS011;42800;53.928;27.662;2023-06-24T12:34:21;3.50;;;3.20;;
56911;SDS011;42800;53.928;27.662;2023-06-24T12:36:47;4.63;;;3.78;;
56911;SDS011;42800;53.928;27.662;2023-06-24T12:39:13;7.40;;;4.15;;
56911;SDS011;42800;53.928;27.662;2023-06-24T12:41:39;5.88;;;3.78;;
56911;SDS011;42800;53.928;27.662;2023-06-24T12:44:05;4.28;;;3.75;;
56911;SDS011;42800;53.928;27.662;2023-06-24T12:46:30;6.68;;;4.47;;
56911;SDS011;42800;53.928;27.662;2023-06-24T12:48:56;6.85;;;3.88;;
56911;SDS011;42800;53.928;27.662;2023-06-24T12:51:23;8.73;;;4.00;;
56911;SDS011;42800;53.928;27.662;2023-06-24T12:53:49;4.68;;;4.00;;
56911;SDS011;42800;53.928;27.662;2023-06-24T12:56:15;6.97;;;4.00;;
56911;SDS011;42800;53.928;27.662;2023-06-24T12:58:41;4.32;;;3.92;;
56911;SDS011;42800;53.928;27.662;2023-06-24T13:01:06;4.22;;;3.80;;
56911;SDS011;42800;53.928;27.662;2023-06-24T13:03:33;5.18;;;3.80;;
56911;SDS011;42800;53.928;27.662;2023-06-24T13:05:58;5.60;;;3.85;;
56911;SDS011;42800;53.928;27.662;2023-06-24T13:08:25;4.03;;;3.72;;
56911;SDS011;42800;53.928;27.662;2023-06-24T13:10:51;6.88;;;4.15;;
56911;SDS011;42800;53.928;27.662;2023-06-24T13:13:17;6.85;;;3.80;;
56911;SDS011;42800;53.928;27.662;2023-06-24T13:15:43;4.03;;;3.63;;
56911;SDS011;42800;53.928;27.662;2023-06-24T13:18:09;4.65;;;3.78;;
56911;SDS011;42800;53.928;27.662;2023-06-24T13:20:34;4.18;;;3.72;;
56911;SDS011;42800;53.928;27.662;2023-06-24T13:23:00;4.70;;;3.40;;
56911;SDS011;42800;53.928;27.662;2023-06-24T13:25:27;3.60;;;3.30;;
56911;SDS011;42800;53.928;27.662;2023-06-24T13:27:53;4.30;;;3.90;;
56911;SDS011;42800;53.928;27.662;2023-06-24T13:30:19;4.82;;;3.55;;
56911;SDS011;42800;53.928;27.662;2023-06-24T13:32:46;4.57;;;3.80;;
56911;SDS011;42800;53.928;27.662;2023-06-24T13:35:14;4.70;;;4.00;;
56911;SDS011;42800;53.928;27.662;2023-06-24T13:37:40;4.88;;;3.30;;
56911;SDS011;42800;53.928;27.662;2023-06-24T13:40:07;4.22;;;3.83;;
56911;SDS011;42800;53.928;27.662;2023-06-24T13:42:34;6.47;;;3.72;;
56911;SDS011;42800;53.928;27.662;2023-06-24T13:45:00;5.90;;;4.10;;
56911;SDS011;42800;53.928;27.662;2023-06-24T13:47:26;4.07;;;3.63;;
56911;SDS011;42800;53.928;27.662;2023-06-24T13:49:52;4.82;;;3.90;;
56911;SDS011;42800;53.928;27.662;2023-06-24T13:52:18;8.00;;;4.07;;
56911;SDS011;42800;53.928;27.662;2023-06-24T13:54:45;5.00;;;3.53;;
56911;SDS011;42800;53.928;27.662;2023-06-24T13:57:11;4.82;;;3.95;;
56911;SDS011;42800;53.928;27.662;2023-06-24T13:59:38;5.75;;;3.75;;
56911;SDS011;42800;53.928;27.662;2023-06-24T14:02:04;4.65;;;4.20;;
56911;SDS011;42800;53.928;27.662;2023-06-24T14:04:30;4.22;;;3.83;;
56911;SDS011;42800;53.928;27.662;2023-06-24T14:06:56;6.85;;;4.30;;
56911;SDS011;42800;53.928;27.662;2023-06-24T14:09:23;6.60;;;3.70;;
56911;SDS011;42800;53.928;27.662;2023-06-24T14:11:49;5.20;;;4.00;;
56911;SDS011;42800;53.928;27.662;2023-06-24T14:14:14;5.22;;;3.97;;
56911;SDS011;42800;53.928;27.662;2023-06-24T14:16:41;4.78;;;4.13;;
56911;SDS011;42800;53.928;27.662;2023-06-24T14:19:07;5.15;;;3.70;;
56911;SDS011;42800;53.928;27.662;2023-06-24T14:21:33;4.30;;;3.90;;
56911;SDS011;42800;53.928;27.662;2023-06-24T14:24:01;5.15;;;4.05;;
56911;SDS011;42800;53.928;27.662;2023-06-24T14:26:27;7.63;;;3.90;;
56911;SDS011;42800;53.928;27.662;2023-06-24T14:28:52;5.10;;;3.80;;
56911;SDS011;42800;53.928;27.662;2023-06-24T14:31:18;5.45;;;4.43;;
56911;SDS011;42800;53.928;27.662;2023-06-24T14:33:45;4.80;;;4.00;;